createdAt,value
2022-12-08T00:00:55.239Z,86.38
2022-12-08T00:01:55.387Z,86.41
2022-12-08T00:02:55.421Z,86.47
2022-12-08T00:03:55.210Z,86.55
2022-12-08T00:04:55.192Z,86.60
2022-12-08T00:05:55.199Z,86.55
2022-12-08T00:06:55.203Z,86.59
2022-12-08T00:07:55.241Z,86.62
2022-12-08T00:08:55.146Z,86.70
2022-12-08T00:09:55.150Z,86.76
2022-12-08T00:10:55.132Z,86.82
2022-12-08T00:11:55.113Z,86.80
2022-12-08T00:12:55.145Z,86.77
2022-12-08T00:13:55.111Z,86.74
2022-12-08T00:14:55.085Z,86.68
2022-12-08T00:15:55.091Z,86.66
2022-12-08T00:16:55.134Z,86.63
2022-12-08T00:17:55.080Z,86.68
2022-12-08T00:18:55.049Z,86.72
2022-12-08T00:19:55.055Z,86.77
2022-12-08T00:20:55.023Z,86.76
2022-12-08T00:21:55.039Z,86.72
2022-12-08T00:22:55.013Z,86.64
2022-12-08T00:23:55.022Z,86.62
2022-12-08T00:24:54.986Z,86.64
2022-12-08T00:25:54.995Z,86.61
2022-12-08T00:26:54.998Z,86.42
2022-12-08T00:27:54.978Z,86.26
2022-12-08T00:28:54.953Z,86.08
2022-12-08T00:29:54.977Z,86.04
2022-12-08T00:30:55.037Z,86.08
2022-12-08T00:31:55.094Z,86.02
2022-12-08T00:32:54.936Z,85.99
2022-12-08T00:33:54.943Z,85.95
2022-12-08T00:34:54.930Z,85.93
2022-12-08T00:35:54.887Z,85.94
2022-12-08T00:36:54.874Z,85.90
2022-12-08T00:38:00.607Z,85.87
2022-12-08T00:38:54.882Z,85.83
2022-12-08T00:39:54.856Z,85.84
2022-12-08T00:40:54.867Z,85.81
2022-12-08T00:41:54.833Z,85.73
2022-12-08T00:42:54.818Z,85.78
2022-12-08T00:43:54.816Z,85.77
2022-12-08T00:44:54.807Z,85.86
2022-12-08T00:45:54.887Z,85.91
2022-12-08T00:46:54.896Z,85.93
2022-12-08T00:47:54.787Z,85.93
2022-12-08T00:48:54.835Z,85.89
2022-12-08T00:49:54.774Z,85.86
2022-12-08T00:50:54.756Z,85.87
2022-12-08T00:51:54.730Z,85.88
2022-12-08T00:52:54.726Z,85.82
2022-12-08T00:53:54.715Z,85.75
2022-12-08T00:54:54.695Z,85.77
2022-12-08T00:55:54.730Z,85.68
2022-12-08T00:56:54.691Z,85.64
2022-12-08T00:57:54.701Z,85.58
2022-12-08T00:58:54.664Z,85.39
2022-12-08T00:59:54.677Z,85.45
2022-12-08T01:00:54.708Z,85.60
2022-12-08T01:01:54.650Z,85.51
2022-12-08T01:02:54.721Z,85.39
2022-12-08T01:03:54.642Z,85.33
2022-12-08T01:04:54.613Z,85.22
2022-12-08T01:05:54.599Z,85.15
2022-12-08T01:06:54.578Z,85.06
2022-12-08T01:07:54.694Z,85.21
2022-12-08T01:08:54.562Z,85.23
2022-12-08T01:09:54.583Z,85.27
2022-12-08T01:10:54.544Z,85.25
2022-12-08T01:11:54.548Z,85.24
2022-12-08T01:12:54.520Z,85.26
2022-12-08T01:13:54.525Z,85.16
2022-12-08T01:14:56.881Z,85.20
2022-12-08T01:15:54.539Z,85.31
2022-12-08T01:16:54.562Z,85.38
2022-12-08T01:17:54.488Z,85.25
2022-12-08T01:18:54.503Z,85.20
2022-12-08T01:19:54.469Z,85.20
2022-12-08T01:20:54.464Z,85.12
2022-12-08T01:21:54.465Z,85.14
2022-12-08T01:22:54.436Z,85.21
2022-12-08T01:23:54.473Z,85.25
2022-12-08T01:24:54.418Z,85.28
2022-12-08T01:25:54.644Z,85.28
2022-12-08T01:26:54.395Z,85.37
2022-12-08T01:27:54.475Z,85.45
2022-12-08T01:28:54.379Z,85.53
2022-12-08T01:29:54.369Z,85.58
2022-12-08T01:30:54.479Z,85.63
2022-12-08T01:31:54.341Z,85.73
2022-12-08T01:32:54.351Z,85.86
2022-12-08T01:33:54.328Z,85.94
2022-12-08T01:34:54.312Z,86.02
2022-12-08T01:35:54.358Z,86.16
2022-12-08T01:36:54.324Z,86.20
2022-12-08T01:37:54.283Z,86.22
2022-12-08T01:38:54.282Z,86.23
2022-12-08T01:39:54.274Z,86.27
2022-12-08T01:40:54.250Z,86.29
2022-12-08T01:41:54.292Z,86.34
2022-12-08T01:42:54.235Z,86.39
2022-12-08T01:43:54.238Z,86.41
2022-12-08T01:44:54.260Z,86.46
2022-12-08T01:45:54.283Z,86.47
2022-12-08T01:46:54.196Z,86.45
2022-12-08T01:47:54.255Z,86.41
2022-12-08T01:48:54.177Z,86.37
2022-12-08T01:49:54.176Z,86.34
2022-12-08T01:50:54.187Z,86.34
2022-12-08T01:51:54.169Z,86.23
2022-12-08T01:52:54.141Z,86.15
2022-12-08T01:53:54.130Z,86.18
2022-12-08T01:54:54.126Z,86.18
2022-12-08T01:55:54.117Z,86.26
2022-12-08T01:56:54.122Z,86.33
2022-12-08T01:57:54.131Z,86.36
2022-12-08T01:58:54.197Z,86.38
2022-12-08T01:59:54.075Z,86.39
2022-12-08T02:00:54.141Z,86.46
2022-12-08T02:01:54.135Z,86.56
2022-12-08T02:02:54.094Z,86.70
2022-12-08T02:03:54.086Z,86.80
2022-12-08T02:04:54.085Z,86.88
2022-12-08T02:05:54.025Z,86.94
2022-12-08T02:06:54.037Z,86.93
2022-12-08T02:07:54.041Z,86.98
2022-12-08T02:08:53.988Z,86.97
2022-12-08T02:09:54.006Z,86.97
2022-12-08T02:10:53.989Z,86.91
2022-12-08T02:11:53.961Z,86.84
2022-12-08T02:12:53.984Z,86.82
2022-12-08T02:13:53.939Z,86.74
2022-12-08T02:14:53.953Z,86.74
2022-12-08T02:15:54.052Z,86.78
2022-12-08T02:16:53.912Z,86.82
2022-12-08T02:17:53.926Z,86.99
2022-12-08T02:19:28.643Z,87.17
2022-12-08T02:19:53.900Z,87.53
2022-12-08T02:20:53.886Z,87.80
2022-12-08T02:21:53.879Z,87.98
2022-12-08T02:22:53.899Z,88.23
2022-12-08T02:23:53.869Z,88.27
2022-12-08T02:24:53.863Z,88.30
2022-12-08T02:25:53.844Z,88.48
2022-12-08T02:26:53.886Z,88.66
2022-12-08T02:27:53.805Z,88.71
2022-12-08T02:28:53.832Z,88.75
2022-12-08T02:29:53.808Z,88.80
2022-12-08T02:30:53.847Z,88.83
2022-12-08T02:31:53.787Z,88.86
2022-12-08T02:32:53.759Z,88.90
2022-12-08T02:33:53.752Z,88.95
2022-12-08T02:34:53.743Z,88.98
2022-12-08T02:35:53.761Z,88.96
2022-12-08T02:36:53.749Z,88.93
2022-12-08T02:37:53.716Z,88.96
2022-12-08T02:38:53.717Z,89.02
2022-12-08T02:39:54.502Z,89.09
2022-12-08T02:40:53.746Z,89.13
2022-12-08T02:41:53.699Z,89.12
2022-12-08T02:42:53.704Z,89.03
2022-12-08T02:43:53.659Z,88.95
2022-12-08T02:44:53.702Z,88.94
2022-12-08T02:45:53.675Z,88.95
2022-12-08T02:46:53.618Z,88.92
2022-12-08T02:47:53.648Z,88.92
2022-12-08T02:48:53.622Z,88.88
2022-12-08T02:49:53.623Z,88.72
2022-12-08T02:50:53.582Z,88.49
2022-12-08T02:51:53.587Z,88.33
2022-12-08T02:52:53.579Z,88.28
2022-12-08T02:53:53.562Z,88.28
2022-12-08T02:54:53.570Z,88.24
2022-12-08T02:55:53.539Z,88.21
2022-12-08T02:56:53.546Z,88.20
2022-12-08T02:57:53.530Z,88.17
2022-12-08T02:58:53.538Z,88.15
2022-12-08T02:59:53.518Z,88.02
2022-12-08T03:00:53.502Z,87.96
2022-12-08T03:01:53.528Z,88.01
2022-12-08T03:02:53.551Z,88.08
2022-12-08T03:03:53.467Z,87.99
2022-12-08T03:04:53.501Z,87.86
2022-12-08T03:05:53.472Z,87.75
2022-12-08T03:06:53.442Z,87.73
2022-12-08T03:07:53.491Z,87.67
2022-12-08T03:08:53.420Z,87.72
2022-12-08T03:09:53.420Z,87.83
2022-12-08T03:10:53.424Z,87.78
2022-12-08T03:11:53.395Z,87.77
2022-12-08T03:12:53.388Z,87.78
2022-12-08T03:13:53.387Z,87.79
2022-12-08T03:14:53.359Z,87.77
2022-12-08T03:15:53.438Z,87.74
2022-12-08T03:16:53.356Z,87.73
2022-12-08T03:17:53.341Z,87.73
2022-12-08T03:18:53.331Z,87.71
2022-12-08T03:19:53.346Z,87.75
2022-12-08T03:20:53.312Z,87.81
2022-12-08T03:21:53.297Z,87.92
2022-12-08T03:22:53.334Z,87.94
2022-12-08T03:23:53.270Z,88.00
2022-12-08T03:24:53.259Z,88.11
2022-12-08T03:25:53.274Z,88.08
2022-12-08T03:26:53.275Z,88.05
2022-12-08T03:27:53.242Z,88.01
2022-12-08T03:28:53.228Z,88.00
2022-12-08T03:29:53.225Z,88.03
2022-12-08T03:30:53.255Z,88.01
2022-12-08T03:31:53.200Z,87.98
2022-12-08T03:32:53.209Z,87.96
2022-12-08T03:33:53.198Z,88.11
2022-12-08T03:34:53.178Z,88.32
2022-12-08T03:35:53.172Z,88.42
2022-12-08T03:36:53.141Z,88.46
2022-12-08T03:37:53.156Z,88.42
2022-12-08T03:38:53.174Z,88.41
2022-12-08T03:39:53.149Z,88.44
2022-12-08T03:40:53.134Z,88.54
2022-12-08T03:41:53.130Z,88.54
2022-12-08T03:42:53.127Z,88.57
2022-12-08T03:43:53.083Z,88.64
2022-12-08T03:44:53.147Z,88.80
2022-12-08T03:45:53.078Z,88.82
2022-12-08T03:46:53.098Z,88.83
2022-12-08T03:47:53.053Z,88.83
2022-12-08T03:48:53.045Z,88.67
2022-12-08T03:49:53.080Z,88.52
2022-12-08T03:50:53.026Z,88.49
2022-12-08T03:51:53.009Z,88.41
2022-12-08T03:52:53.038Z,88.40
2022-12-08T03:53:52.988Z,88.36
2022-12-08T03:54:52.995Z,88.36
2022-12-08T03:55:52.996Z,88.41
2022-12-08T03:56:53.021Z,88.43
2022-12-08T03:57:52.972Z,88.40
2022-12-08T03:58:52.960Z,88.39
2022-12-08T03:59:52.934Z,88.43
2022-12-08T04:00:52.938Z,88.45
2022-12-08T04:01:53.048Z,88.48
2022-12-08T04:02:52.943Z,88.50
2022-12-08T04:03:52.896Z,88.76
2022-12-08T04:04:52.899Z,88.92
2022-12-08T04:05:52.895Z,88.89
2022-12-08T04:06:52.877Z,88.87
2022-12-08T04:07:52.922Z,88.85
2022-12-08T04:08:52.860Z,88.85
2022-12-08T04:09:52.838Z,88.79
2022-12-08T04:10:52.840Z,88.79
2022-12-08T04:11:52.829Z,88.76
2022-12-08T04:12:52.803Z,88.71
2022-12-08T04:13:52.798Z,88.69
2022-12-08T04:14:52.816Z,88.63
2022-12-08T04:15:52.847Z,88.57
2022-12-08T04:16:52.782Z,88.56
2022-12-08T04:17:52.781Z,88.52
2022-12-08T04:18:52.795Z,88.58
2022-12-08T04:19:52.739Z,88.78
2022-12-08T04:20:52.775Z,88.80
2022-12-08T04:21:52.728Z,88.86
2022-12-08T04:22:52.800Z,88.91
2022-12-08T04:23:56.213Z,89.05
2022-12-08T04:24:52.701Z,89.03
2022-12-08T04:25:52.730Z,89.12
2022-12-08T04:26:52.679Z,89.26
2022-12-08T04:27:52.671Z,89.30
2022-12-08T04:28:52.686Z,89.32
2022-12-08T04:29:52.679Z,89.37
2022-12-08T04:30:52.639Z,89.43
2022-12-08T04:31:52.717Z,89.48
2022-12-08T04:32:52.656Z,89.54
2022-12-08T04:33:52.889Z,89.63
2022-12-08T04:34:52.616Z,89.67
2022-12-08T04:35:52.592Z,89.73
2022-12-08T04:36:52.603Z,89.77
2022-12-08T04:37:52.597Z,89.77
2022-12-08T04:38:52.610Z,89.77
2022-12-08T04:39:52.555Z,89.76
2022-12-08T04:40:52.560Z,89.82
2022-12-08T04:41:52.535Z,89.92
2022-12-08T04:42:52.537Z,89.99
2022-12-08T04:43:52.561Z,90.07
2022-12-08T04:44:52.537Z,90.06
2022-12-08T04:45:52.520Z,90.05
2022-12-08T04:46:52.519Z,90.03
2022-12-08T04:47:52.505Z,90.05
2022-12-08T04:48:52.527Z,90.06
2022-12-08T04:49:52.473Z,90.00
2022-12-08T04:50:52.451Z,89.95
2022-12-08T04:51:52.500Z,89.93
2022-12-08T04:52:52.436Z,89.92
2022-12-08T04:53:52.439Z,89.98
2022-12-08T04:54:52.415Z,90.06
2022-12-08T04:55:52.455Z,90.16
2022-12-08T04:56:52.408Z,90.17
2022-12-08T04:57:52.374Z,90.15
2022-12-08T04:58:52.386Z,90.10
2022-12-08T04:59:52.390Z,90.05
2022-12-08T05:00:52.462Z,89.95
2022-12-08T05:01:52.519Z,89.84
2022-12-08T05:02:52.359Z,89.74
2022-12-08T05:03:52.351Z,89.76
2022-12-08T05:04:52.318Z,89.80
2022-12-08T05:05:52.355Z,89.91
2022-12-08T05:06:52.318Z,90.06
2022-12-08T05:07:52.422Z,90.17
2022-12-08T05:08:52.304Z,90.22
2022-12-08T05:09:52.297Z,90.22
2022-12-08T05:10:52.272Z,90.12
2022-12-08T05:11:52.263Z,89.97
2022-12-08T05:12:52.282Z,89.79
2022-12-08T05:13:52.276Z,89.70
2022-12-08T05:14:52.241Z,89.66
2022-12-08T05:15:52.258Z,89.66
2022-12-08T05:16:52.252Z,89.61
2022-12-08T05:17:52.243Z,89.65
2022-12-08T05:18:52.202Z,89.68
2022-12-08T05:19:52.192Z,89.79
2022-12-08T05:20:52.181Z,89.87
2022-12-08T05:21:52.176Z,89.89
2022-12-08T05:22:52.146Z,89.84
2022-12-08T05:23:52.202Z,89.72
2022-12-08T05:24:52.142Z,89.70
2022-12-08T05:25:52.132Z,89.77
2022-12-08T05:26:52.122Z,89.82
2022-12-08T05:28:01.637Z,89.86
2022-12-08T05:28:52.129Z,89.92
2022-12-08T05:29:52.091Z,89.92
2022-12-08T05:30:52.103Z,89.91
2022-12-08T05:31:52.123Z,89.95
2022-12-08T05:32:52.057Z,90.03
2022-12-08T05:33:52.062Z,90.12
2022-12-08T05:34:52.081Z,90.15
2022-12-08T05:35:52.022Z,90.09
2022-12-08T05:36:52.098Z,90.04
2022-12-08T05:37:52.044Z,90.01
2022-12-08T05:38:52.005Z,89.96
2022-12-08T05:39:52.011Z,89.99
2022-12-08T05:40:52.050Z,90.12
2022-12-08T05:41:52.009Z,90.28
2022-12-08T05:42:51.960Z,90.39
2022-12-08T05:43:51.986Z,90.54
2022-12-08T05:44:51.945Z,90.69
2022-12-08T05:45:51.989Z,90.74
2022-12-08T05:46:52.008Z,90.73
2022-12-08T05:47:51.958Z,90.57
2022-12-08T05:48:51.911Z,90.34
2022-12-08T05:49:51.916Z,90.20
2022-12-08T05:50:51.922Z,90.06
2022-12-08T05:51:51.888Z,89.99
2022-12-08T05:52:51.888Z,89.95
2022-12-08T05:53:51.894Z,89.92
2022-12-08T05:54:51.856Z,89.85
2022-12-08T05:55:51.882Z,89.84
2022-12-08T05:56:51.851Z,89.81
2022-12-08T05:57:51.904Z,89.80
2022-12-08T05:58:51.930Z,89.98
2022-12-08T05:59:51.801Z,90.22
2022-12-08T06:00:51.818Z,90.31
2022-12-08T06:01:51.855Z,90.17
2022-12-08T06:02:51.953Z,89.93
2022-12-08T06:03:51.769Z,89.69
2022-12-08T06:04:51.781Z,89.54
2022-12-08T06:05:51.776Z,89.47
2022-12-08T06:06:51.761Z,89.37
2022-12-08T06:07:51.851Z,89.33
2022-12-08T06:08:51.739Z,89.31
2022-12-08T06:09:51.717Z,89.38
2022-12-08T06:10:51.747Z,89.45
2022-12-08T06:11:51.696Z,89.48
2022-12-08T06:12:51.758Z,89.51
2022-12-08T06:13:51.670Z,89.53
2022-12-08T06:14:51.673Z,89.50
2022-12-08T06:15:51.681Z,89.45
2022-12-08T06:16:51.719Z,89.35
2022-12-08T06:17:51.722Z,89.30
2022-12-08T06:18:51.694Z,89.29
2022-12-08T06:19:51.616Z,89.46
2022-12-08T06:20:51.584Z,89.66
2022-12-08T06:21:51.638Z,89.68
2022-12-08T06:22:51.561Z,89.63
2022-12-08T06:23:51.598Z,89.44
2022-12-08T06:24:51.599Z,89.23
2022-12-08T06:25:51.539Z,89.02
2022-12-08T06:26:51.512Z,88.87
2022-12-08T06:27:51.506Z,88.76
2022-12-08T06:28:51.486Z,88.74
2022-12-08T06:29:51.471Z,88.76
2022-12-08T06:30:51.519Z,88.86
2022-12-08T06:31:51.481Z,88.96
2022-12-08T06:32:51.450Z,89.11
2022-12-08T06:33:51.436Z,89.30
2022-12-08T06:34:51.482Z,89.45
2022-12-08T06:35:51.449Z,89.52
2022-12-08T06:36:51.436Z,89.53
2022-12-08T06:37:51.402Z,89.50
2022-12-08T06:38:51.411Z,89.51
2022-12-08T06:39:51.405Z,89.51
2022-12-08T06:40:51.390Z,89.46
2022-12-08T06:41:51.418Z,89.31
2022-12-08T06:42:51.357Z,89.24
2022-12-08T06:43:51.350Z,89.21
2022-12-08T06:44:51.360Z,89.22
2022-12-08T06:45:51.418Z,89.26
2022-12-08T06:46:51.356Z,89.35
2022-12-08T06:47:51.302Z,89.44
2022-12-08T06:48:51.334Z,89.51
2022-12-08T06:49:51.283Z,89.67
2022-12-08T06:50:51.357Z,89.85
2022-12-08T06:51:51.271Z,90.08
2022-12-08T06:53:01.090Z,90.30
2022-12-08T06:53:51.277Z,90.48
2022-12-08T06:54:51.250Z,90.52
2022-12-08T06:55:59.439Z,90.56
2022-12-08T06:56:51.263Z,90.59
2022-12-08T06:57:53.960Z,90.64
2022-12-08T06:58:52.930Z,90.56
2022-12-08T06:59:51.206Z,90.38
2022-12-08T07:00:51.294Z,90.21
2022-12-08T07:01:51.280Z,90.02
2022-12-08T07:02:51.207Z,89.78
2022-12-08T07:03:51.169Z,89.61
2022-12-08T07:04:51.162Z,89.53
2022-12-08T07:05:51.143Z,89.32
2022-12-08T07:06:51.167Z,88.93
2022-12-08T07:07:51.169Z,88.73
2022-12-08T07:08:51.153Z,88.61
2022-12-08T07:09:51.098Z,88.54
2022-12-08T07:10:51.101Z,88.58
2022-12-08T07:11:51.191Z,88.62
2022-12-08T07:12:51.079Z,88.65
2022-12-08T07:13:51.083Z,88.64
2022-12-08T07:14:51.076Z,88.64
2022-12-08T07:15:51.041Z,88.73
2022-12-08T07:16:51.302Z,88.81
2022-12-08T07:17:56.319Z,88.86
2022-12-08T07:18:51.030Z,88.93
2022-12-08T07:19:51.021Z,89.06
2022-12-08T07:20:51.045Z,89.10
2022-12-08T07:21:51.028Z,89.16
2022-12-08T07:22:50.993Z,89.26
2022-12-08T07:23:55.948Z,89.37
2022-12-08T07:24:50.976Z,89.43
2022-12-08T07:25:51.031Z,89.41
2022-12-08T07:26:50.951Z,89.41
2022-12-08T07:27:50.973Z,89.39
2022-12-08T07:28:50.929Z,89.39
2022-12-08T07:29:50.932Z,89.53
2022-12-08T07:30:51.029Z,89.75
2022-12-08T07:31:50.931Z,89.89
2022-12-08T07:32:50.892Z,89.88
2022-12-08T07:33:50.892Z,89.58
2022-12-08T07:34:50.867Z,89.28
2022-12-08T07:35:50.871Z,89.00
2022-12-08T07:36:50.866Z,88.86
2022-12-08T07:37:50.928Z,88.62
2022-12-08T07:38:50.831Z,88.44
2022-12-08T07:39:50.825Z,88.41
2022-12-08T07:40:50.867Z,88.22
2022-12-08T07:41:50.948Z,88.03
2022-12-08T07:42:50.807Z,87.85
2022-12-08T07:43:50.868Z,87.65
2022-12-08T07:44:50.777Z,87.66
2022-12-08T07:45:50.947Z,87.99
2022-12-08T07:46:50.785Z,88.31
2022-12-08T07:47:50.782Z,88.42
2022-12-08T07:48:50.744Z,88.50
2022-12-08T07:49:50.735Z,88.44
2022-12-08T07:50:50.803Z,88.37
2022-12-08T07:51:50.781Z,88.31
2022-12-08T07:52:50.754Z,88.08
2022-12-08T07:53:54.073Z,87.84
2022-12-08T07:54:50.746Z,87.67
2022-12-08T07:55:50.703Z,87.46
2022-12-08T07:56:50.684Z,87.35
2022-12-08T07:57:50.705Z,87.26
2022-12-08T07:58:50.653Z,87.17
2022-12-08T07:59:50.630Z,86.98
2022-12-08T08:00:50.821Z,86.79
2022-12-08T08:02:06.537Z,86.65
2022-12-08T08:02:50.658Z,86.57
2022-12-08T08:03:50.652Z,86.55
2022-12-08T08:04:50.657Z,86.54
2022-12-08T08:05:50.573Z,86.52
2022-12-08T08:06:50.597Z,86.53
2022-12-08T08:07:50.663Z,86.50
2022-12-08T08:08:50.583Z,86.47
2022-12-08T08:09:50.596Z,86.43
2022-12-08T08:10:50.599Z,86.39
2022-12-08T08:12:14.401Z,86.38
2022-12-08T08:12:50.573Z,86.36
2022-12-08T08:13:50.500Z,86.40
2022-12-08T08:14:50.506Z,86.49
2022-12-08T08:15:50.612Z,86.48
2022-12-08T08:16:50.530Z,86.45
2022-12-08T08:17:50.487Z,86.76
2022-12-08T08:18:50.460Z,87.08
2022-12-08T08:19:50.451Z,87.35
2022-12-08T08:20:50.531Z,87.48
2022-12-08T08:21:50.445Z,87.51
2022-12-08T08:22:50.445Z,87.52
2022-12-08T08:23:50.407Z,87.64
2022-12-08T08:24:50.433Z,87.69
2022-12-08T08:25:50.396Z,87.71
2022-12-08T08:26:50.415Z,87.63
2022-12-08T08:27:50.390Z,87.47
2022-12-08T08:28:50.360Z,87.31
2022-12-08T08:29:50.362Z,87.18
2022-12-08T08:30:50.575Z,87.11
2022-12-08T08:31:50.334Z,87.06
2022-12-08T08:32:50.340Z,87.05
2022-12-08T08:33:50.393Z,87.17
2022-12-08T08:34:50.303Z,87.22
2022-12-08T08:35:50.394Z,87.21
2022-12-08T08:36:50.334Z,87.20
2022-12-08T08:37:50.279Z,87.17
2022-12-08T08:38:50.276Z,87.14
2022-12-08T08:39:50.299Z,87.13
2022-12-08T08:40:50.275Z,87.08
2022-12-08T08:41:50.237Z,86.97
2022-12-08T08:42:50.262Z,86.96
2022-12-08T08:43:50.220Z,86.93
2022-12-08T08:44:50.219Z,86.93
2022-12-08T08:45:50.205Z,86.99
2022-12-08T08:46:50.316Z,87.01
2022-12-08T08:47:50.296Z,87.09
2022-12-08T08:48:50.183Z,87.04
2022-12-08T08:49:50.161Z,87.02
2022-12-08T08:50:50.223Z,87.04
2022-12-08T08:51:50.145Z,87.05
2022-12-08T08:52:50.148Z,87.02
2022-12-08T08:53:50.143Z,86.90
2022-12-08T08:54:50.112Z,86.72
2022-12-08T08:55:50.100Z,86.52
2022-12-08T08:56:50.137Z,86.68
2022-12-08T08:57:50.117Z,86.74
2022-12-08T08:58:50.069Z,86.68
2022-12-08T08:59:50.064Z,86.48
2022-12-08T09:00:50.052Z,86.54
2022-12-08T09:01:50.149Z,86.74
2022-12-08T09:02:50.047Z,87.03
2022-12-08T09:03:50.049Z,87.29
2022-12-08T09:04:50.082Z,87.42
2022-12-08T09:05:50.086Z,87.37
2022-12-08T09:06:49.997Z,87.39
2022-12-08T09:07:50.090Z,87.37
2022-12-08T09:08:50.005Z,87.39
2022-12-08T09:09:49.987Z,87.50
2022-12-08T09:10:49.964Z,87.46
2022-12-08T09:11:49.945Z,87.34
2022-12-08T09:12:50.010Z,87.30
2022-12-08T09:13:49.940Z,87.26
2022-12-08T09:14:49.933Z,87.05
2022-12-08T09:15:49.971Z,86.98
2022-12-08T09:16:49.935Z,86.92
2022-12-08T09:17:49.931Z,86.91
2022-12-08T09:18:49.899Z,86.85
2022-12-08T09:19:49.894Z,86.73
2022-12-08T09:20:49.913Z,86.55
2022-12-08T09:21:49.859Z,86.31
2022-12-08T09:22:49.852Z,86.20
2022-12-08T09:23:49.829Z,86.16
2022-12-08T09:24:49.819Z,86.14
2022-12-08T09:25:49.848Z,86.16
2022-12-08T09:26:49.829Z,86.01
2022-12-08T09:27:49.960Z,85.90
2022-12-08T09:28:49.785Z,85.75
2022-12-08T09:29:49.785Z,85.98
2022-12-08T09:30:49.886Z,86.39
2022-12-08T09:31:49.923Z,86.74
2022-12-08T09:32:49.760Z,87.05
2022-12-08T09:33:49.756Z,87.14
2022-12-08T09:34:52.216Z,86.91
2022-12-08T09:35:49.715Z,86.65
2022-12-08T09:36:49.704Z,86.45
2022-12-08T09:37:49.750Z,86.38
2022-12-08T09:38:49.688Z,86.38
2022-12-08T09:39:49.706Z,86.35
2022-12-08T09:40:49.671Z,86.01
2022-12-08T09:41:49.671Z,85.64
2022-12-08T09:42:49.664Z,85.22
2022-12-08T09:43:49.649Z,85.09
2022-12-08T09:44:49.647Z,85.04
2022-12-08T09:45:49.618Z,85.10
2022-12-08T09:46:49.656Z,85.22
2022-12-08T09:47:49.609Z,85.32
2022-12-08T09:48:49.666Z,84.97
2022-12-08T09:49:49.610Z,84.78
2022-12-08T09:50:49.601Z,84.78
2022-12-08T09:51:49.563Z,84.80
2022-12-08T09:52:49.556Z,85.17
2022-12-08T09:53:49.550Z,85.47
2022-12-08T09:54:49.574Z,85.47
2022-12-08T09:55:49.554Z,85.54
2022-12-08T09:56:49.528Z,85.72
2022-12-08T09:57:55.994Z,85.59
2022-12-08T09:58:49.547Z,85.53
2022-12-08T09:59:49.486Z,85.33
2022-12-08T10:00:49.473Z,85.20
2022-12-08T10:01:49.549Z,85.35
2022-12-08T10:02:49.463Z,85.15
2022-12-08T10:03:49.453Z,84.91
2022-12-08T10:04:49.494Z,84.80
2022-12-08T10:05:49.434Z,84.63
2022-12-08T10:06:49.436Z,84.52
2022-12-08T10:07:49.476Z,84.19
2022-12-08T10:08:49.410Z,83.89
2022-12-08T10:09:49.424Z,83.55
2022-12-08T10:10:49.426Z,83.44
2022-12-08T10:11:49.397Z,83.67
2022-12-08T10:12:49.364Z,83.96
2022-12-08T10:13:49.379Z,83.62
2022-12-08T10:14:49.366Z,82.97
2022-12-08T10:15:49.362Z,82.57
2022-12-08T10:16:49.396Z,82.45
2022-12-08T10:17:49.311Z,82.78
2022-12-08T10:18:49.347Z,82.71
2022-12-08T10:19:49.331Z,83.07
2022-12-08T10:20:49.337Z,83.31
2022-12-08T10:21:49.363Z,83.48
2022-12-08T10:22:49.353Z,83.84
2022-12-08T10:23:49.249Z,82.63
2022-12-08T10:24:49.286Z,82.53
2022-12-08T10:25:49.245Z,82.69
2022-12-08T10:26:49.283Z,82.50
2022-12-08T10:27:49.216Z,82.58
2022-12-08T10:28:49.202Z,83.03
2022-12-08T10:29:49.214Z,82.47
2022-12-08T10:30:49.189Z,82.45
2022-12-08T10:31:49.251Z,82.87
2022-12-08T10:32:49.161Z,82.32
2022-12-08T10:33:49.217Z,82.46
2022-12-08T10:34:52.200Z,82.10
2022-12-08T10:35:49.182Z,82.10
2022-12-08T10:36:49.131Z,81.92
2022-12-08T10:37:49.134Z,81.61
2022-12-08T10:38:49.100Z,81.01
2022-12-08T10:39:49.108Z,80.12
2022-12-08T10:40:49.115Z,80.73
2022-12-08T10:41:49.122Z,80.87
2022-12-08T10:42:49.088Z,80.47
2022-12-08T10:43:49.075Z,79.99
2022-12-08T10:44:49.054Z,79.94
2022-12-08T10:45:49.062Z,79.90
2022-12-08T10:46:49.065Z,80.51
2022-12-08T10:47:55.181Z,80.73
2022-12-08T10:48:49.014Z,80.03
2022-12-08T10:49:49.018Z,79.74
2022-12-08T10:50:49.010Z,80.09
2022-12-08T10:51:48.998Z,79.82
2022-12-08T10:52:48.998Z,79.11
2022-12-08T10:53:48.974Z,79.24
2022-12-08T10:54:48.964Z,79.22
2022-12-08T10:55:48.937Z,79.47
2022-12-08T10:56:48.928Z,79.78
2022-12-08T10:57:48.920Z,79.50
2022-12-08T10:58:48.947Z,79.34
2022-12-08T10:59:48.907Z,78.83
2022-12-08T11:00:49.005Z,78.57
2022-12-08T11:01:49.043Z,78.13
2022-12-08T11:02:49.017Z,78.58
2022-12-08T11:03:48.869Z,78.91
2022-12-08T11:04:48.843Z,78.95
2022-12-08T11:05:48.844Z,79.54
2022-12-08T11:06:48.845Z,79.42
2022-12-08T11:07:48.865Z,79.00
2022-12-08T11:08:48.813Z,78.52
2022-12-08T11:09:48.910Z,78.49
2022-12-08T11:10:48.879Z,79.17
2022-12-08T11:11:48.791Z,79.37
2022-12-08T11:12:48.772Z,79.47
2022-12-08T11:13:48.760Z,80.00
2022-12-08T11:14:48.757Z,80.37
2022-12-08T11:15:48.753Z,79.56
2022-12-08T11:16:48.819Z,78.61
2022-12-08T11:17:52.131Z,78.15
2022-12-08T11:18:48.710Z,77.83
2022-12-08T11:19:48.718Z,77.42
2022-12-08T11:20:48.681Z,77.83
2022-12-08T11:21:48.687Z,78.03
2022-12-08T11:22:48.705Z,78.41
2022-12-08T11:23:48.691Z,78.52
2022-12-08T11:24:48.677Z,78.23
2022-12-08T11:25:48.653Z,78.75
2022-12-08T11:26:48.641Z,78.89
2022-12-08T11:27:48.622Z,79.30
2022-12-08T11:28:48.605Z,79.12
2022-12-08T11:29:48.641Z,78.64
2022-12-08T11:30:48.598Z,79.09
2022-12-08T11:31:48.646Z,79.72
2022-12-08T11:32:48.592Z,78.99
2022-12-08T11:33:48.564Z,79.30
2022-12-08T11:34:48.582Z,79.61
2022-12-08T11:35:48.546Z,79.74
2022-12-08T11:36:48.584Z,79.77
2022-12-08T11:37:48.545Z,79.98
2022-12-08T11:38:48.500Z,80.12
2022-12-08T11:39:48.508Z,80.27
2022-12-08T11:40:48.538Z,80.66
2022-12-08T11:41:48.507Z,80.92
2022-12-08T11:42:48.466Z,81.16
2022-12-08T11:43:48.503Z,80.78
2022-12-08T11:44:48.445Z,80.34
2022-12-08T11:45:49.214Z,80.54
2022-12-08T11:46:48.443Z,80.28
2022-12-08T11:47:54.165Z,80.01
2022-12-08T11:48:48.423Z,79.71
2022-12-08T11:49:48.448Z,79.69
2022-12-08T11:50:48.391Z,79.43
2022-12-08T11:51:48.393Z,79.52
2022-12-08T11:52:48.391Z,79.58
2022-12-08T11:53:48.356Z,80.86
2022-12-08T11:54:48.357Z,82.00
2022-12-08T11:55:50.087Z,82.72
2022-12-08T11:56:48.328Z,83.23
2022-12-08T11:57:48.357Z,83.34
2022-12-08T11:58:48.313Z,83.31
2022-12-08T11:59:48.298Z,83.37
2022-12-08T12:00:48.293Z,83.22
2022-12-08T12:01:48.365Z,83.37
2022-12-08T12:02:48.450Z,83.39
2022-12-08T12:03:48.307Z,83.33
2022-12-08T12:04:48.268Z,83.72
2022-12-08T12:06:12.546Z,83.99
2022-12-08T12:06:55.897Z,84.02
2022-12-08T12:07:48.297Z,84.16
2022-12-08T12:08:48.207Z,84.30
2022-12-08T12:09:48.213Z,84.44
2022-12-08T12:10:48.220Z,84.51
2022-12-08T12:11:48.182Z,84.83
2022-12-08T12:12:48.284Z,84.45
2022-12-08T12:13:48.223Z,84.49
2022-12-08T12:14:48.151Z,84.68
2022-12-08T12:15:48.197Z,84.72
2022-12-08T12:16:48.177Z,84.66
2022-12-08T12:17:48.180Z,84.46
2022-12-08T12:18:48.161Z,84.39
2022-12-08T12:19:48.104Z,84.55
2022-12-08T12:20:48.092Z,84.66
2022-12-08T12:21:48.095Z,84.57
2022-12-08T12:22:48.107Z,84.55
2022-12-08T12:23:48.065Z,84.63
2022-12-08T12:24:48.100Z,84.75
2022-12-08T12:25:48.054Z,85.15
2022-12-08T12:26:48.057Z,85.00
2022-12-08T12:27:48.032Z,84.74
2022-12-08T12:28:48.029Z,84.66
2022-12-08T12:29:52.227Z,84.41
2022-12-08T12:30:48.076Z,84.39
2022-12-08T12:31:48.018Z,84.46
2022-12-08T12:32:47.988Z,84.70
2022-12-08T12:33:47.978Z,84.92
2022-12-08T12:34:47.981Z,84.59
2022-12-08T12:35:47.962Z,84.39
2022-12-08T12:36:47.983Z,84.46
2022-12-08T12:37:47.942Z,84.50
2022-12-08T12:38:47.927Z,84.51
2022-12-08T12:39:47.929Z,84.61
2022-12-08T12:40:47.963Z,84.61
2022-12-08T12:41:47.903Z,84.50
2022-12-08T12:42:47.915Z,84.69
2022-12-08T12:43:47.892Z,84.86
2022-12-08T12:44:47.896Z,84.99
2022-12-08T12:45:47.946Z,85.02
2022-12-08T12:46:47.867Z,85.11
2022-12-08T12:47:54.102Z,84.99
2022-12-08T12:48:47.822Z,84.64
2022-12-08T12:49:47.823Z,84.53
2022-12-08T12:50:47.829Z,84.65
2022-12-08T12:51:47.832Z,84.52
2022-12-08T12:52:47.780Z,84.54